createdAt,value
2022-12-11T00:00:08.083Z,24.03
2022-12-11T00:00:18.221Z,24.02
2022-12-11T00:00:28.284Z,24.02
2022-12-11T00:00:38.270Z,24.02
2022-12-11T00:00:48.275Z,24.02
2022-12-11T00:00:58.278Z,24.03
2022-12-11T00:01:08.304Z,24.03
2022-12-11T00:01:18.552Z,24.02
2022-12-11T00:01:28.551Z,24.02
2022-12-11T00:01:38.670Z,24.01
2022-12-11T00:01:48.985Z,24.02
2022-12-11T00:01:59.044Z,24.02
2022-12-11T00:02:09.070Z,24.01
2022-12-11T00:02:19.146Z,24.01
2022-12-11T00:02:29.168Z,24.02
2022-12-11T00:02:39.235Z,24.01
2022-12-11T00:02:49.405Z,24.01
2022-12-11T00:02:59.375Z,24.01
2022-12-11T00:03:15.417Z,24.02
2022-12-11T00:03:19.586Z,23.96
2022-12-11T00:03:29.692Z,23.98
2022-12-11T00:03:39.768Z,23.98
2022-12-11T00:03:49.796Z,23.98
2022-12-11T00:03:59.814Z,23.99
2022-12-11T00:04:09.840Z,24.00
2022-12-11T00:04:19.853Z,23.99
2022-12-11T00:04:29.855Z,23.99
2022-12-11T00:04:40.234Z,24.00
2022-12-11T00:04:50.243Z,24.00
2022-12-11T00:05:00.246Z,24.00
2022-12-11T00:05:10.521Z,23.99
2022-12-11T00:05:20.374Z,23.99
2022-12-11T00:05:30.383Z,24.00
2022-12-11T00:05:40.376Z,24.00
2022-12-11T00:05:50.374Z,24.01
2022-12-11T00:06:00.392Z,24.01
2022-12-11T00:06:10.399Z,24.01
2022-12-11T00:06:20.404Z,24.00
2022-12-11T00:06:30.403Z,24.00
2022-12-11T00:06:40.417Z,24.01
2022-12-11T00:06:50.425Z,24.01
2022-12-11T00:07:00.791Z,24.01
2022-12-11T00:07:10.790Z,24.01
2022-12-11T00:07:20.906Z,24.01
2022-12-11T00:07:31.184Z,24.00
2022-12-11T00:07:41.325Z,24.01
2022-12-11T00:07:51.374Z,24.01
2022-12-11T00:08:01.703Z,24.01
2022-12-11T00:08:11.877Z,24.01
2022-12-11T00:08:21.831Z,24.01
2022-12-11T00:08:32.102Z,24.01
2022-12-11T00:08:42.220Z,24.01
2022-12-11T00:08:52.287Z,24.01
2022-12-11T00:09:02.533Z,24.02
2022-12-11T00:09:12.544Z,24.02
2022-12-11T00:09:23.142Z,24.01
2022-12-11T00:09:32.638Z,24.01
2022-12-11T00:09:42.647Z,24.01
2022-12-11T00:09:52.646Z,24.01
2022-12-11T00:10:02.656Z,24.00
2022-12-11T00:10:12.673Z,24.01
2022-12-11T00:10:22.675Z,24.01
2022-12-11T00:10:37.523Z,24.01
2022-12-11T00:10:42.907Z,23.95
2022-12-11T00:10:52.913Z,23.97
2022-12-11T00:11:03.007Z,23.98
2022-12-11T00:11:13.023Z,23.99
2022-12-11T00:11:23.023Z,23.99
2022-12-11T00:11:33.043Z,24.00
2022-12-11T00:11:43.034Z,24.00
2022-12-11T00:11:53.039Z,24.00
2022-12-11T00:12:03.414Z,24.00
2022-12-11T00:12:13.433Z,24.01
2022-12-11T00:12:23.426Z,24.00
2022-12-11T00:12:33.421Z,24.01
2022-12-11T00:12:43.545Z,24.01
2022-12-11T00:12:53.575Z,24.01
2022-12-11T00:13:03.548Z,24.01
2022-12-11T00:13:13.551Z,24.00
2022-12-11T00:13:23.671Z,24.01
2022-12-11T00:13:33.691Z,24.01
2022-12-11T00:13:43.814Z,24.01
2022-12-11T00:13:53.829Z,24.00
2022-12-11T00:14:03.832Z,24.00
2022-12-11T00:14:13.847Z,24.00
2022-12-11T00:14:24.023Z,24.01
2022-12-11T00:14:34.042Z,24.01
2022-12-11T00:14:44.186Z,24.01
2022-12-11T00:14:54.208Z,24.01
2022-12-11T00:15:04.352Z,24.00
2022-12-11T00:15:14.361Z,24.01
2022-12-11T00:15:24.376Z,24.01
2022-12-11T00:15:34.378Z,24.01
2022-12-11T00:15:44.498Z,24.01
2022-12-11T00:15:54.755Z,24.00
2022-12-11T00:16:04.877Z,24.00
2022-12-11T00:16:14.943Z,24.01
2022-12-11T00:16:27.145Z,24.01
2022-12-11T00:16:35.310Z,24.00
2022-12-11T00:16:45.396Z,23.99
2022-12-11T00:16:55.431Z,24.00
2022-12-11T00:17:05.514Z,24.00
2022-12-11T00:17:15.436Z,24.00
2022-12-11T00:17:25.563Z,24.00
2022-12-11T00:17:35.568Z,24.01
2022-12-11T00:17:45.574Z,24.01
2022-12-11T00:17:55.584Z,24.02
2022-12-11T00:18:05.866Z,24.01
2022-12-11T00:18:15.868Z,24.01
2022-12-11T00:18:25.870Z,24.02
2022-12-11T00:18:35.886Z,24.02
2022-12-11T00:18:45.896Z,24.02
2022-12-11T00:18:55.885Z,24.02
2022-12-11T00:19:06.010Z,24.02
2022-12-11T00:19:16.017Z,24.01
2022-12-11T00:19:26.148Z,24.01
2022-12-11T00:19:36.149Z,24.01
2022-12-11T00:19:46.295Z,24.01
2022-12-11T00:19:56.304Z,24.02
2022-12-11T00:20:06.312Z,24.01
2022-12-11T00:20:16.325Z,24.01
2022-12-11T00:20:26.348Z,24.01
2022-12-11T00:20:36.345Z,24.01
2022-12-11T00:20:46.345Z,24.02
2022-12-11T00:20:56.365Z,24.02
2022-12-11T00:21:06.368Z,24.02
2022-12-11T00:21:16.377Z,24.02
2022-12-11T00:21:26.761Z,24.02
2022-12-11T00:21:36.758Z,24.03
2022-12-11T00:21:46.881Z,24.02
2022-12-11T00:21:57.136Z,24.03
2022-12-11T00:22:07.152Z,24.02
2022-12-11T00:22:17.154Z,24.03
2022-12-11T00:22:27.533Z,24.03
2022-12-11T00:22:37.570Z,24.02
2022-12-11T00:22:47.571Z,24.03
2022-12-11T00:22:57.603Z,24.03
2022-12-11T00:23:07.606Z,24.03
2022-12-11T00:23:17.610Z,24.02
2022-12-11T00:23:27.611Z,24.02
2022-12-11T00:23:37.639Z,24.01
2022-12-11T00:23:47.639Z,24.02
2022-12-11T00:23:57.649Z,24.02
2022-12-11T00:24:07.660Z,24.02
2022-12-11T00:24:17.675Z,24.02
2022-12-11T00:24:27.681Z,24.01
2022-12-11T00:24:37.688Z,24.02
2022-12-11T00:24:47.697Z,24.02
2022-12-11T00:24:57.710Z,24.01
2022-12-11T00:25:08.102Z,24.01
2022-12-11T00:25:17.731Z,24.01
2022-12-11T00:25:27.768Z,24.00
2022-12-11T00:25:37.775Z,24.00
2022-12-11T00:25:47.768Z,24.01
2022-12-11T00:25:57.771Z,24.00
2022-12-11T00:26:07.904Z,24.01
2022-12-11T00:26:17.915Z,24.00
2022-12-11T00:26:28.179Z,24.00
2022-12-11T00:26:38.182Z,24.00
2022-12-11T00:26:48.311Z,24.00
2022-12-11T00:26:58.570Z,24.00
2022-12-11T00:27:08.693Z,24.01
2022-12-11T00:27:18.694Z,24.00
2022-12-11T00:27:28.961Z,24.00
2022-12-11T00:27:38.963Z,24.00
2022-12-11T00:27:48.977Z,24.00
2022-12-11T00:27:59.009Z,24.00
2022-12-11T00:28:09.005Z,23.99
2022-12-11T00:28:19.004Z,23.99
2022-12-11T00:28:29.017Z,23.99
2022-12-11T00:28:39.022Z,23.99
2022-12-11T00:28:49.082Z,23.99
2022-12-11T00:28:59.168Z,23.99
2022-12-11T00:29:09.156Z,23.98
2022-12-11T00:29:19.160Z,24.00
2022-12-11T00:29:29.180Z,23.99
2022-12-11T00:29:39.188Z,23.99
2022-12-11T00:29:49.201Z,23.99
2022-12-11T00:29:59.204Z,23.99
2022-12-11T00:30:09.219Z,23.99
2022-12-11T00:30:19.216Z,23.99
2022-12-11T00:30:29.238Z,23.99
2022-12-11T00:30:39.236Z,23.99
2022-12-11T00:30:49.261Z,23.99
2022-12-11T00:30:59.269Z,23.99
2022-12-11T00:31:09.286Z,23.99
2022-12-11T00:31:19.422Z,23.99
2022-12-11T00:31:29.404Z,23.99
2022-12-11T00:31:39.440Z,23.98
2022-12-11T00:31:49.493Z,23.98
2022-12-11T00:31:59.588Z,23.98
2022-12-11T00:32:09.793Z,23.98
2022-12-11T00:32:19.882Z,23.98
2022-12-11T00:32:32.642Z,23.98
2022-12-11T00:32:39.892Z,23.93
2022-12-11T00:32:49.890Z,23.95
2022-12-11T00:32:59.893Z,23.96
2022-12-11T00:33:10.023Z,23.98
2022-12-11T00:33:20.033Z,23.98
2022-12-11T00:33:30.041Z,23.98
2022-12-11T00:33:40.067Z,23.98
2022-12-11T00:33:50.061Z,23.98
2022-12-11T00:34:00.076Z,23.98
2022-12-11T00:34:10.082Z,23.98
2022-12-11T00:34:20.103Z,23.98
2022-12-11T00:34:30.107Z,23.98
2022-12-11T00:34:40.120Z,23.98
2022-12-11T00:34:50.238Z,23.98
2022-12-11T00:35:00.253Z,23.99
2022-12-11T00:35:10.753Z,23.99
2022-12-11T00:35:20.621Z,23.99
2022-12-11T00:35:30.629Z,23.99
2022-12-11T00:35:40.896Z,23.98
2022-12-11T00:35:51.040Z,23.99
2022-12-11T00:36:01.134Z,23.98
2022-12-11T00:36:11.310Z,23.99
2022-12-11T00:36:21.346Z,23.99
2022-12-11T00:36:31.350Z,23.99
2022-12-11T00:36:41.353Z,23.98
2022-12-11T00:36:51.355Z,23.98
2022-12-11T00:37:01.400Z,23.99
2022-12-11T00:37:11.519Z,23.97
2022-12-11T00:37:21.629Z,23.98
2022-12-11T00:37:31.789Z,23.97
2022-12-11T00:37:41.699Z,23.97
2022-12-11T00:37:51.879Z,23.97
2022-12-11T00:38:01.876Z,23.97
2022-12-11T00:38:11.878Z,23.97
2022-12-11T00:38:22.256Z,23.98
2022-12-11T00:38:32.259Z,23.98
2022-12-11T00:38:42.387Z,23.98
2022-12-11T00:38:52.666Z,23.98
2022-12-11T00:39:02.678Z,23.98
2022-12-11T00:39:12.679Z,23.98
2022-12-11T00:39:23.057Z,23.98
2022-12-11T00:39:33.058Z,23.98
2022-12-11T00:39:43.184Z,23.99
2022-12-11T00:39:53.446Z,23.98
2022-12-11T00:40:03.454Z,23.97
2022-12-11T00:40:13.453Z,23.97
2022-12-11T00:40:23.456Z,23.97
2022-12-11T00:40:33.474Z,23.97
2022-12-11T00:40:43.656Z,23.96
2022-12-11T00:40:53.646Z,23.97
2022-12-11T00:41:03.665Z,23.96
2022-12-11T00:41:13.670Z,23.96
2022-12-11T00:41:23.675Z,23.96
2022-12-11T00:41:33.942Z,23.96
2022-12-11T00:41:43.951Z,23.96
2022-12-11T00:41:53.946Z,23.97
2022-12-11T00:42:04.328Z,23.97
2022-12-11T00:42:14.325Z,23.97
2022-12-11T00:42:24.336Z,23.98
2022-12-11T00:42:34.347Z,23.97
2022-12-11T00:42:44.366Z,23.97
2022-12-11T00:42:54.375Z,23.97
2022-12-11T00:43:04.471Z,23.97
2022-12-11T00:43:14.455Z,23.97
2022-12-11T00:43:24.580Z,23.97
2022-12-11T00:43:34.581Z,23.96
2022-12-11T00:43:44.855Z,23.96
2022-12-11T00:43:54.872Z,23.96
2022-12-11T00:44:04.868Z,23.97
2022-12-11T00:44:14.894Z,23.96
2022-12-11T00:44:24.891Z,23.96
2022-12-11T00:44:34.910Z,23.96
2022-12-11T00:44:44.908Z,23.96
2022-12-11T00:44:54.921Z,23.97
2022-12-11T00:45:05.038Z,23.97
2022-12-11T00:45:15.052Z,23.96
2022-12-11T00:45:25.307Z,23.96
2022-12-11T00:45:35.343Z,23.96
2022-12-11T00:45:45.379Z,23.95
2022-12-11T00:45:55.424Z,23.96
2022-12-11T00:46:05.524Z,23.96
2022-12-11T00:46:15.593Z,23.95
2022-12-11T00:46:25.689Z,23.95
2022-12-11T00:46:35.695Z,23.95
2022-12-11T00:46:45.827Z,23.95
2022-12-11T00:46:55.837Z,23.95
2022-12-11T00:47:05.962Z,23.95
2022-12-11T00:47:15.961Z,23.96
2022-12-11T00:47:25.968Z,23.95
2022-12-11T00:47:36.011Z,23.96
2022-12-11T00:47:46.056Z,23.96
2022-12-11T00:47:56.063Z,23.96
2022-12-11T00:48:06.106Z,23.95
2022-12-11T00:48:16.117Z,23.95
2022-12-11T00:48:26.132Z,23.96
2022-12-11T00:48:36.139Z,23.95
2022-12-11T00:48:46.521Z,23.95
2022-12-11T00:48:56.517Z,23.95
2022-12-11T00:49:06.530Z,23.96
2022-12-11T00:49:16.545Z,23.95
2022-12-11T00:49:26.624Z,23.96
2022-12-11T00:49:36.624Z,23.96
2022-12-11T00:49:49.955Z,23.96
2022-12-11T00:49:56.790Z,23.93
2022-12-11T00:50:06.793Z,23.95
2022-12-11T00:50:16.799Z,23.95
2022-12-11T00:50:26.813Z,23.96
2022-12-11T00:50:36.831Z,23.95
2022-12-11T00:50:46.970Z,23.96
2022-12-11T00:50:56.975Z,23.95
2022-12-11T00:51:06.987Z,23.95
2022-12-11T00:51:16.996Z,23.95
2022-12-11T00:51:27.008Z,23.95
2022-12-11T00:51:37.264Z,23.95
2022-12-11T00:51:47.387Z,23.95
2022-12-11T00:51:57.397Z,23.96
2022-12-11T00:52:07.646Z,23.95
2022-12-11T00:52:17.836Z,23.96
2022-12-11T00:52:27.715Z,23.95
2022-12-11T00:52:37.735Z,23.95
2022-12-11T00:52:47.724Z,23.96
2022-12-11T00:52:57.731Z,23.96
2022-12-11T00:53:07.739Z,23.96
2022-12-11T00:53:17.753Z,23.98
2022-12-11T00:53:27.749Z,23.97
2022-12-11T00:53:37.747Z,23.97
2022-12-11T00:53:48.152Z,23.97
2022-12-11T00:53:58.156Z,23.97
2022-12-11T00:54:08.168Z,23.97
2022-12-11T00:54:18.183Z,23.97
2022-12-11T00:54:28.186Z,23.97
2022-12-11T00:54:38.194Z,23.97
2022-12-11T00:54:48.195Z,23.97
2022-12-11T00:54:58.214Z,23.97
2022-12-11T00:55:08.730Z,23.97
2022-12-11T00:55:18.261Z,23.97
2022-12-11T00:55:28.263Z,23.97
2022-12-11T00:55:38.273Z,23.98
2022-12-11T00:55:48.403Z,23.98
2022-12-11T00:55:58.404Z,23.97
2022-12-11T00:56:08.413Z,23.97
2022-12-11T00:56:19.152Z,23.97
2022-12-11T00:56:28.599Z,23.97
2022-12-11T00:56:41.764Z,23.96
2022-12-11T00:56:48.866Z,23.95
2022-12-11T00:56:59.659Z,23.95
2022-12-11T00:57:08.921Z,23.95
2022-12-11T00:57:18.928Z,23.95
2022-12-11T00:57:28.930Z,23.95
2022-12-11T00:57:42.690Z,23.96
2022-12-11T00:57:49.263Z,23.92
2022-12-11T00:57:59.252Z,23.93
2022-12-11T00:58:09.285Z,23.94
2022-12-11T00:58:19.288Z,23.94
2022-12-11T00:58:29.290Z,23.94
2022-12-11T00:58:39.290Z,23.94
2022-12-11T00:58:49.291Z,23.94
2022-12-11T00:58:59.303Z,23.94
2022-12-11T00:59:09.303Z,23.94
2022-12-11T00:59:19.305Z,23.95
2022-12-11T00:59:29.310Z,23.95
2022-12-11T00:59:39.316Z,23.95
2022-12-11T00:59:49.317Z,23.95
2022-12-11T00:59:59.314Z,23.95
2022-12-11T01:00:09.438Z,23.95
2022-12-11T01:00:19.438Z,23.95
2022-12-11T01:00:29.556Z,23.96
2022-12-11T01:00:39.689Z,23.95
2022-12-11T01:00:49.817Z,23.96
2022-12-11T01:00:59.832Z,23.96
2022-12-11T01:01:10.166Z,23.95
2022-12-11T01:01:20.245Z,23.95
2022-12-11T01:01:30.419Z,23.95
2022-12-11T01:01:40.335Z,23.94
2022-12-11T01:01:50.359Z,23.94
2022-12-11T01:02:00.357Z,23.95
2022-12-11T01:02:10.477Z,23.95
2022-12-11T01:02:20.484Z,23.94
2022-12-11T01:02:30.705Z,23.94
2022-12-11T01:02:40.756Z,23.95
2022-12-11T01:02:50.802Z,23.95
2022-12-11T01:03:00.922Z,23.95
2022-12-11T01:03:10.872Z,23.95
2022-12-11T01:03:20.864Z,23.94
2022-12-11T01:03:30.986Z,23.95
2022-12-11T01:03:40.992Z,23.95
2022-12-11T01:03:51.115Z,23.94
2022-12-11T01:04:01.122Z,23.94
2022-12-11T01:04:11.137Z,23.95
2022-12-11T01:04:21.146Z,23.94
2022-12-11T01:04:31.282Z,23.94
2022-12-11T01:04:41.292Z,23.94
2022-12-11T01:04:51.306Z,23.94
2022-12-11T01:05:01.320Z,23.94
2022-12-11T01:05:11.604Z,23.95
2022-12-11T01:05:21.442Z,23.94
2022-12-11T01:05:31.448Z,23.94
2022-12-11T01:05:41.448Z,23.94
2022-12-11T01:05:51.461Z,23.94
2022-12-11T01:06:01.471Z,23.93
2022-12-11T01:06:11.737Z,23.93
2022-12-11T01:06:21.735Z,23.93
2022-12-11T01:06:31.853Z,23.94
2022-12-11T01:06:42.114Z,23.94
2022-12-11T01:06:52.127Z,23.94
2022-12-11T01:07:02.132Z,23.94
2022-12-11T01:07:12.510Z,23.94
2022-12-11T01:07:22.510Z,23.94
2022-12-11T01:07:32.526Z,23.94
2022-12-11T01:07:42.655Z,23.94
2022-12-11T01:07:52.646Z,23.93
2022-12-11T01:08:02.717Z,23.93
2022-12-11T01:08:12.876Z,23.94
2022-12-11T01:08:22.834Z,23.94
2022-12-11T01:08:38.375Z,23.94
2022-12-11T01:08:42.836Z,23.89
2022-12-11T01:08:52.841Z,23.91
2022-12-11T01:09:02.855Z,23.92
2022-12-11T01:09:12.869Z,23.92
2022-12-11T01:09:22.879Z,23.93
2022-12-11T01:09:33.010Z,23.94
2022-12-11T01:09:43.008Z,23.93
2022-12-11T01:09:53.132Z,23.93
2022-12-11T01:10:03.388Z,23.93
2022-12-11T01:10:13.594Z,23.93
2022-12-11T01:10:23.641Z,23.95
2022-12-11T01:10:33.925Z,23.94
2022-12-11T01:10:43.977Z,23.93
2022-12-11T01:10:54.077Z,23.94
2022-12-11T01:11:04.352Z,23.94
2022-12-11T01:11:14.349Z,23.94
2022-12-11T01:11:24.355Z,23.95
2022-12-11T01:11:34.372Z,23.93
2022-12-11T01:11:44.399Z,23.93
2022-12-11T01:11:54.519Z,23.94
2022-12-11T01:12:04.530Z,23.94
2022-12-11T01:12:14.547Z,23.94
2022-12-11T01:12:24.560Z,23.94
2022-12-11T01:12:34.565Z,23.93
2022-12-11T01:12:44.832Z,23.94
2022-12-11T01:12:54.831Z,23.94
2022-12-11T01:13:04.833Z,23.93
2022-12-11T01:13:15.235Z,23.94
2022-12-11T01:13:25.209Z,23.93
2022-12-11T01:13:35.340Z,23.93
2022-12-11T01:13:45.615Z,23.94
2022-12-11T01:13:55.611Z,23.94
2022-12-11T01:14:05.612Z,23.93
2022-12-11T01:14:16.002Z,23.92
2022-12-11T01:14:26.034Z,23.93
2022-12-11T01:14:36.050Z,23.93
2022-12-11T01:14:46.058Z,23.93
2022-12-11T01:14:56.064Z,23.93
2022-12-11T01:15:06.076Z,23.92
2022-12-11T01:15:16.096Z,23.93
2022-12-11T01:15:26.128Z,23.93
2022-12-11T01:15:41.089Z,23.93
2022-12-11T01:15:46.117Z,23.88
2022-12-11T01:15:56.127Z,23.90
2022-12-11T01:16:06.130Z,23.91
2022-12-11T01:16:16.237Z,23.91
2022-12-11T01:16:26.305Z,23.91
2022-12-11T01:16:36.403Z,23.91
2022-12-11T01:16:46.399Z,23.92
2022-12-11T01:16:56.446Z,23.91
2022-12-11T01:17:06.716Z,23.92
2022-12-11T01:17:16.711Z,23.92
2022-12-11T01:17:26.715Z,23.92
2022-12-11T01:17:36.722Z,23.92
2022-12-11T01:17:46.721Z,23.92
2022-12-11T01:17:56.844Z,23.92
2022-12-11T01:18:06.859Z,23.92
2022-12-11T01:18:16.864Z,23.93
2022-12-11T01:18:26.863Z,23.93
2022-12-11T01:18:36.993Z,23.92
2022-12-11T01:18:47.131Z,23.92
2022-12-11T01:18:57.137Z,23.92
2022-12-11T01:19:07.147Z,23.93
2022-12-11T01:19:17.135Z,23.93
2022-12-11T01:19:27.277Z,23.92
2022-12-11T01:19:37.277Z,23.93
2022-12-11T01:19:47.268Z,23.93
2022-12-11T01:19:57.274Z,23.92
2022-12-11T01:20:07.412Z,23.92
2022-12-11T01:20:17.417Z,23.92
2022-12-11T01:20:27.549Z,23.93
2022-12-11T01:20:37.557Z,23.92
2022-12-11T01:20:47.562Z,23.93
2022-12-11T01:20:57.563Z,23.92
2022-12-11T01:21:07.571Z,23.92
2022-12-11T01:21:17.580Z,23.92
2022-12-11T01:21:27.701Z,23.92
2022-12-11T01:21:37.703Z,23.92
2022-12-11T01:21:47.824Z,23.93
2022-12-11T01:21:57.824Z,23.93
2022-12-11T01:22:07.968Z,23.93
2022-12-11T01:22:17.992Z,23.93
2022-12-11T01:22:27.990Z,23.93
2022-12-11T01:22:37.984Z,23.93
2022-12-11T01:22:47.996Z,23.93
2022-12-11T01:22:57.999Z,23.92
2022-12-11T01:23:08.002Z,23.92
2022-12-11T01:23:18.007Z,23.92
2022-12-11T01:23:28.135Z,23.92
2022-12-11T01:23:38.141Z,23.92
2022-12-11T01:23:48.410Z,23.92
2022-12-11T01:23:58.417Z,23.92
2022-12-11T01:24:08.420Z,23.92
2022-12-11T01:24:18.420Z,23.92
2022-12-11T01:24:28.431Z,23.93
2022-12-11T01:24:38.439Z,23.92
2022-12-11T01:24:48.469Z,23.92
2022-12-11T01:24:58.473Z,23.93
2022-12-11T01:25:09.009Z,23.92
2022-12-11T01:25:18.677Z,23.92
2022-12-11T01:25:28.953Z,23.92
2022-12-11T01:25:38.950Z,23.92
2022-12-11T01:25:48.958Z,23.92
2022-12-11T01:25:58.960Z,23.92
2022-12-11T01:26:09.088Z,23.92
2022-12-11T01:26:19.102Z,23.92
2022-12-11T01:26:29.103Z,23.92
2022-12-11T01:26:39.115Z,23.91
2022-12-11T01:26:49.236Z,23.92
2022-12-11T01:26:59.236Z,23.91
2022-12-11T01:27:09.367Z,23.91
2022-12-11T01:27:19.366Z,23.91
2022-12-11T01:27:29.370Z,23.92
2022-12-11T01:27:39.374Z,23.91
2022-12-11T01:27:49.378Z,23.92
2022-12-11T01:27:59.382Z,23.91
2022-12-11T01:28:09.386Z,23.91
2022-12-11T01:28:19.422Z,23.91
2022-12-11T01:28:29.402Z,23.91
2022-12-11T01:28:39.413Z,23.91
2022-12-11T01:28:49.422Z,23.91
2022-12-11T01:28:59.433Z,23.91
2022-12-11T01:29:09.552Z,23.91
2022-12-11T01:29:19.552Z,23.91
2022-12-11T01:29:29.683Z,23.91
2022-12-11T01:29:39.689Z,23.91
2022-12-11T01:29:49.688Z,23.91
2022-12-11T01:29:59.823Z,23.91
2022-12-11T01:30:09.953Z,23.91
2022-12-11T01:30:19.964Z,23.91
2022-12-11T01:30:30.282Z,23.91
2022-12-11T01:30:40.318Z,23.91
2022-12-11T01:30:50.358Z,23.90
2022-12-11T01:31:00.533Z,23.90
2022-12-11T01:31:10.555Z,23.89
2022-12-11T01:31:20.662Z,23.90
2022-12-11T01:31:30.583Z,23.90
2022-12-11T01:31:40.594Z,23.89
2022-12-11T01:31:50.602Z,23.90
2022-12-11T01:32:00.615Z,23.90
2022-12-11T01:32:10.622Z,23.89
2022-12-11T01:32:20.652Z,23.89
2022-12-11T01:32:30.655Z,23.89
2022-12-11T01:32:40.657Z,23.90
2022-12-11T01:32:50.670Z,23.89
2022-12-11T01:33:00.672Z,23.89
2022-12-11T01:33:10.796Z,23.89
2022-12-11T01:33:21.054Z,23.89
2022-12-11T01:33:31.069Z,23.90
2022-12-11T01:33:41.078Z,23.90
2022-12-11T01:33:51.086Z,23.89
2022-12-11T01:34:01.094Z,23.89
2022-12-11T01:34:11.109Z,23.90
2022-12-11T01:34:21.116Z,23.89
2022-12-11T01:34:31.124Z,23.90
2022-12-11T01:34:41.128Z,23.90
2022-12-11T01:34:51.254Z,23.90
2022-12-11T01:35:01.514Z,23.90
2022-12-11T01:35:12.115Z,23.89
2022-12-11T01:35:21.657Z,23.89
2022-12-11T01:35:31.921Z,23.89
2022-12-11T01:35:41.940Z,23.89
2022-12-11T01:35:51.951Z,23.89
2022-12-11T01:36:01.953Z,23.89
2022-12-11T01:36:11.985Z,23.89
2022-12-11T01:36:21.996Z,23.89
2022-12-11T01:36:32.008Z,23.90
2022-12-11T01:36:42.009Z,23.89
2022-12-11T01:36:52.015Z,23.90
2022-12-11T01:37:02.042Z,23.89
2022-12-11T01:37:12.040Z,23.90
2022-12-11T01:37:22.049Z,23.90
2022-12-11T01:37:32.048Z,23.89
2022-12-11T01:37:42.055Z,23.89
2022-12-11T01:37:52.184Z,23.89
2022-12-11T01:38:02.194Z,23.89
2022-12-11T01:38:12.205Z,23.89
2022-12-11T01:38:22.472Z,23.89
2022-12-11T01:38:32.481Z,23.89
2022-12-11T01:38:42.481Z,23.89
2022-12-11T01:38:52.488Z,23.89
2022-12-11T01:39:02.503Z,23.89
2022-12-11T01:39:12.520Z,23.89
2022-12-11T01:39:22.520Z,23.90
2022-12-11T01:39:32.547Z,23.89
2022-12-11T01:39:42.577Z,23.89
2022-12-11T01:39:52.586Z,23.89
2022-12-11T01:40:02.588Z,23.89
2022-12-11T01:40:12.597Z,23.89
2022-12-11T01:40:22.613Z,23.88
2022-12-11T01:40:32.624Z,23.89
2022-12-11T01:40:42.636Z,23.89
2022-12-11T01:40:52.755Z,23.89
2022-12-11T01:41:02.759Z,23.89
2022-12-11T01:41:13.014Z,23.88
2022-12-11T01:41:23.041Z,23.88
2022-12-11T01:41:33.043Z,23.88
2022-12-11T01:41:43.046Z,23.88
2022-12-11T01:41:53.055Z,23.87
2022-12-11T01:42:03.067Z,23.88
2022-12-11T01:42:13.070Z,23.89
2022-12-11T01:42:23.086Z,23.88
2022-12-11T01:42:33.094Z,23.88
2022-12-11T01:42:43.094Z,23.88
2022-12-11T01:42:53.477Z,23.88
2022-12-11T01:43:03.489Z,23.87
2022-12-11T01:43:13.488Z,23.87
2022-12-11T01:43:23.517Z,23.88
2022-12-11T01:43:33.511Z,23.88
2022-12-11T01:43:43.514Z,23.88
2022-12-11T01:43:53.635Z,23.88
2022-12-11T01:44:03.646Z,23.88
2022-12-11T01:44:13.769Z,23.88
2022-12-11T01:44:23.769Z,23.88
2022-12-11T01:44:33.903Z,23.88
2022-12-11T01:44:43.902Z,23.88
2022-12-11T01:44:53.906Z,23.88
2022-12-11T01:45:03.915Z,23.89
2022-12-11T01:45:13.922Z,23.88
2022-12-11T01:45:26.841Z,23.88
2022-12-11T01:45:34.018Z,23.85
2022-12-11T01:45:44.087Z,23.86
2022-12-11T01:45:54.208Z,23.86
2022-12-11T01:46:04.396Z,23.87
2022-12-11T01:46:14.475Z,23.87
2022-12-11T01:46:24.610Z,23.87
2022-12-11T01:46:34.491Z,23.87
2022-12-11T01:46:44.503Z,23.87
2022-12-11T01:46:54.625Z,23.87
2022-12-11T01:47:04.624Z,23.87
2022-12-11T01:47:14.754Z,23.87
2022-12-11T01:47:24.748Z,23.87
2022-12-11T01:47:34.867Z,23.86
2022-12-11T01:47:44.870Z,23.87
2022-12-11T01:47:54.871Z,23.87
2022-12-11T01:48:04.871Z,23.87
2022-12-11T01:48:14.879Z,23.87
2022-12-11T01:48:24.885Z,23.86
2022-12-11T01:48:39.307Z,23.86
2022-12-11T01:48:44.904Z,23.81
2022-12-11T01:48:54.903Z,23.83
2022-12-11T01:49:04.909Z,23.84
2022-12-11T01:49:14.905Z,23.84
2022-12-11T01:49:24.907Z,23.85
2022-12-11T01:49:35.055Z,23.84
2022-12-11T01:49:45.064Z,23.85
2022-12-11T01:49:55.075Z,23.85
2022-12-11T01:50:05.082Z,23.86
2022-12-11T01:50:15.105Z,23.86
2022-12-11T01:50:25.110Z,23.86
2022-12-11T01:50:35.238Z,23.86
2022-12-11T01:50:45.239Z,23.85
2022-12-11T01:50:55.360Z,23.86
2022-12-11T01:51:05.358Z,23.86
2022-12-11T01:51:15.493Z,23.87
2022-12-11T01:51:25.494Z,23.87
2022-12-11T01:51:35.499Z,23.87
2022-12-11T01:51:45.495Z,23.87
2022-12-11T01:51:55.632Z,23.87
2022-12-11T01:52:05.639Z,23.87
2022-12-11T01:52:15.758Z,23.87
2022-12-11T01:52:25.764Z,23.86
2022-12-11T01:52:35.882Z,23.87
2022-12-11T01:52:45.885Z,23.86
2022-12-11T01:52:55.881Z,23.87
2022-12-11T01:53:05.882Z,23.87
2022-12-11T01:53:15.897Z,23.87
2022-12-11T01:53:25.900Z,23.87
2022-12-11T01:53:35.905Z,23.87
2022-12-11T01:53:45.906Z,23.87
2022-12-11T01:53:55.911Z,23.87
2022-12-11T01:54:05.927Z,23.87
2022-12-11T01:54:15.936Z,23.86
2022-12-11T01:54:25.941Z,23.86
2022-12-11T01:54:36.325Z,23.87
2022-12-11T01:54:46.320Z,23.87
2022-12-11T01:54:56.324Z,23.87
2022-12-11T01:55:06.327Z,23.87
2022-12-11T01:55:16.452Z,23.87
2022-12-11T01:55:26.463Z,23.86
2022-12-11T01:55:36.480Z,23.87
2022-12-11T01:55:46.485Z,23.87
2022-12-11T01:55:56.490Z,23.87
2022-12-11T01:56:06.500Z,23.87
2022-12-11T01:56:16.780Z,23.87
2022-12-11T01:56:26.775Z,23.87
2022-12-11T01:56:36.779Z,23.87
2022-12-11T01:56:46.800Z,23.87
2022-12-11T01:56:56.829Z,23.87
2022-12-11T01:57:06.824Z,23.87
2022-12-11T01:57:16.825Z,23.86
2022-12-11T01:57:26.835Z,23.86
2022-12-11T01:57:36.959Z,23.86
2022-12-11T01:57:46.961Z,23.86
2022-12-11T01:57:57.224Z,23.86
2022-12-11T01:58:07.245Z,23.86
2022-12-11T01:58:17.251Z,23.86
2022-12-11T01:58:27.279Z,23.86
2022-12-11T01:58:37.266Z,23.86
2022-12-11T01:58:47.266Z,23.86
2022-12-11T01:58:57.283Z,23.86
2022-12-11T01:59:07.321Z,23.85
2022-12-11T01:59:17.331Z,23.86
2022-12-11T01:59:27.345Z,23.86
2022-12-11T01:59:37.348Z,23.86
2022-12-11T01:59:47.376Z,23.86
2022-12-11T01:59:57.379Z,23.85
2022-12-11T02:00:07.422Z,23.85
2022-12-11T02:00:17.426Z,23.85
2022-12-11T02:00:27.427Z,23.85
2022-12-11T02:00:37.547Z,23.84
2022-12-11T02:00:47.817Z,23.85
2022-12-11T02:00:57.861Z,23.85
2022-12-11T02:01:07.910Z,23.85
2022-12-11T02:01:18.022Z,23.86
2022-12-11T02:01:28.152Z,23.85
2022-12-11T02:01:38.135Z,23.86
2022-12-11T02:01:48.063Z,23.86
2022-12-11T02:01:58.056Z,23.86
2022-12-11T02:02:08.109Z,23.86
2022-12-11T02:02:18.162Z,23.85
2022-12-11T02:02:28.247Z,23.86
2022-12-11T02:02:38.372Z,23.85
2022-12-11T02:02:48.438Z,23.85
2022-12-11T02:02:58.479Z,23.85
2022-12-11T02:03:08.490Z,23.86
2022-12-11T02:03:18.489Z,23.86
2022-12-11T02:03:28.545Z,23.85
2022-12-11T02:03:38.691Z,23.86
2022-12-11T02:03:48.697Z,23.87
2022-12-11T02:03:58.710Z,23.86
2022-12-11T02:04:08.716Z,23.86
2022-12-11T02:04:18.729Z,23.86
2022-12-11T02:04:28.856Z,23.86
2022-12-11T02:04:38.865Z,23.86
2022-12-11T02:04:48.879Z,23.86
2022-12-11T02:04:58.883Z,23.86
2022-12-11T02:05:09.235Z,23.86
2022-12-11T02:05:19.260Z,23.86
2022-12-11T02:05:29.263Z,23.85
2022-12-11T02:05:39.267Z,23.85
2022-12-11T02:05:49.648Z,23.85
2022-12-11T02:05:59.656Z,23.85
2022-12-11T02:06:09.672Z,23.85
2022-12-11T02:06:19.682Z,23.85
2022-12-11T02:06:29.691Z,23.85
2022-12-11T02:06:39.694Z,23.85
2022-12-11T02:06:49.820Z,23.85
2022-12-11T02:06:59.838Z,23.85
2022-12-11T02:07:09.830Z,23.85
2022-12-11T02:07:19.870Z,23.85
2022-12-11T02:07:30.157Z,23.86
2022-12-11T02:07:40.142Z,23.85
2022-12-11T02:07:50.336Z,23.86
2022-12-11T02:08:00.626Z,23.86
2022-12-11T02:08:10.670Z,23.86
2022-12-11T02:08:20.737Z,23.86
2022-12-11T02:08:30.742Z,23.85
2022-12-11T02:08:40.763Z,23.86
2022-12-11T02:08:50.755Z,23.86
2022-12-11T02:09:00.782Z,23.85
2022-12-11T02:09:10.798Z,23.85
2022-12-11T02:09:20.801Z,23.85
2022-12-11T02:09:30.813Z,23.85